Time;durP1;ratioP1;P1;durP2;ratioP2;P2;SDS_P1;SDS_P2;PMS_P1;PMS_P2;Temp;Humidity;BMP_temperature;BMP_pressure;BME280_temperature;BME280_humidity;BME280_pressure;Samples;Min_cycle;Max_cycle;Signal;HPM_P1;HPM_P2
2023/09/23 00:01:51;;;;;;;0.90;0.90;;;13.40;99.90;;;;;;4939044;29;20245;-79
2023/09/23 00:04:18;;;;;;;1.00;0.93;;;13.40;99.90;;;;;;4941381;29;20219;-80
2023/09/23 00:06:45;;;;;;;1.83;0.90;;;13.30;99.90;;;;;;4939715;29;20211;-81
2023/09/23 00:09:16;;;;;;;0.60;0.60;;;13.30;99.90;;;;;;4940341;29;20198;-80
2023/09/23 00:11:43;;;;;;;0.80;0.80;;;13.30;99.90;;;;;;4947910;29;20587;-81
2023/09/23 00:14:12;;;;;;;1.33;0.80;;;13.30;99.90;;;;;;4934319;29;20227;-80
2023/09/23 00:16:39;;;;;;;0.93;0.80;;;13.30;99.90;;;;;;4936352;29;20210;-80
2023/09/23 00:19:08;;;;;;;1.03;0.80;;;13.30;99.90;;;;;;4935652;29;20607;-81
2023/09/23 00:21:35;;;;;;;1.37;0.73;;;13.30;99.90;;;;;;4926042;29;20601;-80
2023/09/23 00:24:02;;;;;;;2.07;1.33;;;13.10;99.90;;;;;;4937122;29;20262;-79
2023/09/23 00:26:29;;;;;;;1.60;0.70;;;13.10;99.90;;;;;;4938889;29;20221;-79
2023/09/23 00:28:56;;;;;;;0.53;0.53;;;13.10;99.90;;;;;;4939887;29;20310;-79
2023/09/23 00:31:24;;;;;;;2.50;0.97;;;13.10;99.90;;;;;;4940041;29;20203;-79
2023/09/23 00:33:52;;;;;;;2.43;0.80;;;13.20;99.90;;;;;;4933377;29;20203;-80
2023/09/23 00:36:19;;;;;;;2.07;0.80;;;13.20;99.90;;;;;;4932825;29;20238;-80
2023/09/23 00:38:46;;;;;;;2.63;0.87;;;13.20;99.90;;;;;;4939360;29;20735;-79
2023/09/23 00:41:13;;;;;;;0.97;0.80;;;13.20;99.90;;;;;;4940275;29;20203;-80
2023/09/23 00:43:40;;;;;;;1.90;0.73;;;13.20;99.90;;;;;;4936211;29;20321;-80
2023/09/23 00:46:10;;;;;;;1.93;0.50;;;13.30;99.90;;;;;;4940284;29;20383;-80
2023/09/23 00:48:42;;;;;;;0.50;0.50;;;13.40;99.90;;;;;;4937717;29;20229;-80
2023/09/23 00:51:10;;;;;;;1.47;1.20;;;13.40;99.90;;;;;;4936818;29;20203;-81
2023/09/23 00:53:39;;;;;;;3.40;0.90;;;13.40;99.90;;;;;;4940019;29;20267;-79
2023/09/23 00:56:08;;;;;;;1.57;0.70;;;13.50;99.90;;;;;;4936800;29;21196;-78
2023/09/23 00:58:36;;;;;;;0.63;0.60;;;13.50;99.90;;;;;;4938346;29;20592;-80
2023/09/23 01:01:05;;;;;;;0.73;0.73;;;13.50;99.90;;;;;;4922150;29;20240;-81
2023/09/23 01:03:32;;;;;;;0.70;0.60;;;13.60;99.90;;;;;;4942023;29;20203;-81
2023/09/23 01:06:05;;;;;;;2.00;0.60;;;13.60;99.90;;;;;;4940011;29;20214;-79
2023/09/23 01:08:31;;;;;;;1.17;0.80;;;13.70;99.90;;;;;;4939120;29;20251;-81
2023/09/23 01:10:59;;;;;;;2.73;0.97;;;13.70;99.90;;;;;;4939900;29;20203;-80
2023/09/23 01:13:29;;;;;;;1.43;0.73;;;13.70;99.90;;;;;;4947076;29;20221;-79
2023/09/23 01:15:57;;;;;;;2.30;0.80;;;13.60;99.90;;;;;;4939477;29;20213;-80
2023/09/23 01:18:28;;;;;;;1.33;0.60;;;13.60;99.90;;;;;;4938347;29;20259;-80
2023/09/23 01:20:58;;;;;;;2.93;1.13;;;13.70;99.90;;;;;;4939486;29;20195;-79
2023/09/23 01:23:26;;;;;;;2.30;0.90;;;13.60;99.90;;;;;;4939785;29;20647;-81
2023/09/23 01:25:53;;;;;;;2.83;1.07;;;13.70;99.90;;;;;;4931904;29;20231;-80
2023/09/23 01:28:20;;;;;;;2.03;0.80;;;13.80;99.90;;;;;;4926290;29;20319;-79
2023/09/23 01:30:48;;;;;;;0.90;0.70;;;13.80;99.90;;;;;;4931204;29;20215;-79
2023/09/23 01:33:15;;;;;;;1.63;0.73;;;13.70;99.90;;;;;;4939372;29;20203;-79
2023/09/23 01:35:44;;;;;;;2.73;1.00;;;13.60;99.90;;;;;;4939538;29;20211;-80
2023/09/23 01:38:15;;;;;;;1.50;0.80;;;13.60;99.90;;;;;;4938676;29;20702;-79
2023/09/23 01:40:44;;;;;;;2.50;0.90;;;13.60;99.90;;;;;;4939273;29;20203;-80
2023/09/23 01:43:11;;;;;;;1.63;0.70;;;13.60;99.90;;;;;;4949364;29;20613;-79
2023/09/23 01:45:38;;;;;;;1.97;0.90;;;13.60;99.90;;;;;;4940132;29;20584;-79
2023/09/23 01:48:06;;;;;;;3.23;1.30;;;13.60;99.90;;;;;;4933587;29;20726;-80
2023/09/23 01:50:32;;;;;;;1.23;1.13;;;13.50;99.90;;;;;;4937541;29;20284;-79
2023/09/23 01:53:00;;;;;;;2.53;1.07;;;13.50;99.90;;;;;;4929798;29;20938;-80
2023/09/23 01:55:28;;;;;;;1.17;1.03;;;13.40;99.90;;;;;;4939522;29;20302;-80
2023/09/23 01:57:56;;;;;;;1.57;1.13;;;13.40;99.90;;;;;;4938577;29;20233;-80
2023/09/23 02:00:26;;;;;;;1.53;0.80;;;13.40;99.90;;;;;;4938760;29;20259;-79
2023/09/23 02:02:54;;;;;;;2.50;1.40;;;13.40;99.90;;;;;;4936904;29;20558;-81
2023/09/23 02:05:21;;;;;;;2.60;1.33;;;13.50;99.90;;;;;;4933143;29;20211;-80
2023/09/23 02:07:50;;;;;;;1.67;1.23;;;13.40;99.90;;;;;;4931648;29;20230;-80
2023/09/23 02:10:17;;;;;;;3.03;1.27;;;13.40;99.90;;;;;;4939135;29;20222;-80
2023/09/23 02:12:44;;;;;;;1.13;1.07;;;13.40;99.90;;;;;;4935984;29;20214;-79
2023/09/23 02:15:15;;;;;;;2.30;1.20;;;13.40;99.90;;;;;;4928067;29;20289;-80
2023/09/23 02:17:42;;;;;;;1.40;1.30;;;13.40;99.90;;;;;;4937636;29;20345;-79
2023/09/23 02:20:17;;;;;;;2.20;1.27;;;13.50;99.90;;;;;;4938350;29;20210;-80
2023/09/23 02:22:45;;;;;;;2.43;1.13;;;13.50;99.90;;;;;;4938413;29;20199;-80
2023/09/23 02:25:13;;;;;;;1.87;1.40;;;13.50;99.90;;;;;;4932542;29;20673;-79
2023/09/23 02:27:40;;;;;;;1.90;1.47;;;13.60;99.90;;;;;;4924540;29;20246;-79
2023/09/23 02:30:09;;;;;;;3.43;1.53;;;13.70;99.90;;;;;;4933347;29;20223;-79
2023/09/23 02:32:39;;;;;;;1.27;1.17;;;13.50;99.90;;;;;;4937288;29;20201;-79
2023/09/23 02:35:08;;;;;;;1.23;1.13;;;13.60;99.90;;;;;;4938437;29;20199;-79
2023/09/23 02:37:37;;;;;;;2.33;1.47;;;13.50;99.90;;;;;;4938130;29;20294;-79
2023/09/23 02:40:11;;;;;;;1.63;1.30;;;13.50;99.90;;;;;;4938189;29;20269;-80
2023/09/23 02:42:38;;;;;;;1.67;1.57;;;13.50;99.90;;;;;;4928367;29;20294;-79
2023/09/23 02:45:06;;;;;;;3.00;1.97;;;13.50;99.90;;;;;;4925041;29;20227;-79
2023/09/23 02:47:33;;;;;;;5.13;2.10;;;13.50;99.90;;;;;;4929571;29;20254;-79
2023/09/23 02:50:02;;;;;;;5.37;2.40;;;13.50;99.90;;;;;;4938176;29;20270;-80
2023/09/23 02:52:28;;;;;;;3.80;2.17;;;13.60;99.90;;;;;;4948203;29;20597;-80
2023/09/23 02:54:55;;;;;;;3.83;2.63;;;13.50;99.90;;;;;;4938028;29;20205;-79
2023/09/23 02:57:22;;;;;;;4.43;2.63;;;13.50;99.90;;;;;;4937468;29;20223;-80
2023/09/23 02:59:56;;;;;;;5.40;2.40;;;13.70;99.90;;;;;;4937681;29;20218;-79
2023/09/23 03:02:28;;;;;;;3.40;2.60;;;13.50;99.90;;;;;;4927724;29;20230;-80
2023/09/23 03:04:58;;;;;;;2.70;2.33;;;13.50;99.90;;;;;;4937757;29;20242;-79
2023/09/23 03:07:32;;;;;;;3.10;2.50;;;13.50;99.90;;;;;;4923161;29;20227;-79
2023/09/23 03:10:01;;;;;;;4.33;2.83;;;13.60;99.90;;;;;;4945604;29;20212;-79
2023/09/23 03:12:29;;;;;;;3.00;2.50;;;13.50;99.90;;;;;;4937629;29;20270;-79
2023/09/23 03:14:59;;;;;;;2.97;2.67;;;13.60;99.90;;;;;;4938360;29;20203;-80
2023/09/23 03:17:26;;;;;;;2.83;2.50;;;13.60;99.90;;;;;;4937350;29;20227;-79
2023/09/23 03:19:53;;;;;;;2.83;2.60;;;13.70;99.90;;;;;;4938395;29;20207;-80
2023/09/23 03:22:21;;;;;;;4.47;2.47;;;13.50;99.90;;;;;;4937760;29;20206;-79
2023/09/23 03:24:50;;;;;;;2.87;2.40;;;13.50;99.90;;;;;;4929951;29;20322;-80
2023/09/23 03:27:18;;;;;;;4.63;2.30;;;13.40;99.90;;;;;;4937654;29;20226;-79
2023/09/23 03:29:46;;;;;;;2.50;2.30;;;13.40;99.90;;;;;;4935715;29;20212;-80
2023/09/23 03:32:13;;;;;;;3.77;2.70;;;13.40;99.90;;;;;;4934166;29;20211;-79
2023/09/23 03:34:41;;;;;;;3.87;2.90;;;13.50;99.90;;;;;;4930501;29;20208;-79
2023/09/23 03:37:08;;;;;;;3.43;3.00;;;13.40;99.90;;;;;;4924307;29;20244;-79
2023/09/23 03:39:36;;;;;;;4.97;3.10;;;13.40;99.90;;;;;;4929227;29;20211;-79
2023/09/23 03:42:05;;;;;;;4.80;3.10;;;13.40;99.90;;;;;;4937535;29;20295;-80
2023/09/23 03:44:35;;;;;;;3.87;3.47;;;13.30;99.90;;;;;;4928448;29;20229;-80
2023/09/23 03:47:03;;;;;;;3.20;2.90;;;13.40;99.90;;;;;;4930093;29;20236;-80
2023/09/23 03:49:31;;;;;;;3.87;2.97;;;13.40;99.90;;;;;;4927308;29;20203;-80
2023/09/23 03:51:58;;;;;;;2.90;2.60;;;13.20;99.90;;;;;;4935666;29;20211;-80
2023/09/23 03:54:25;;;;;;;2.90;2.60;;;13.20;99.90;;;;;;4935320;29;20211;-80
2023/09/23 03:56:52;;;;;;;3.27;2.43;;;13.20;99.90;;;;;;4932824;29;20207;-80
2023/09/23 03:59:20;;;;;;;2.60;2.40;;;13.10;99.90;;;;;;4933844;29;20259;-79
2023/09/23 04:01:48;;;;;;;3.13;2.83;;;13.20;99.90;;;;;;4937026;29;20671;-79
2023/09/23 04:04:15;;;;;;;3.40;3.00;;;13.00;99.90;;;;;;4944146;29;20343;-78
2023/09/23 04:06:42;;;;;;;4.77;3.23;;;13.00;99.90;;;;;;4941975;29;20282;-80
2023/09/23 04:09:12;;;;;;;3.93;3.57;;;13.00;99.90;;;;;;4936162;29;20299;-79
2023/09/23 04:11:45;;;;;;;3.73;3.40;;;12.90;99.90;;;;;;4936346;29;20199;-79
2023/09/23 04:14:12;;;;;;;7.07;3.60;;;12.90;99.90;;;;;;4934699;29;20282;-79
2023/09/23 04:16:40;;;;;;;4.80;3.73;;;12.80;99.90;;;;;;4930256;29;20728;-81
2023/09/23 04:19:07;;;;;;;5.37;4.10;;;12.70;99.90;;;;;;4934428;29;20245;-79
2023/09/23 04:21:34;;;;;;;5.20;3.90;;;12.70;99.90;;;;;;4937187;29;20234;-80
2023/09/23 04:24:01;;;;;;;5.30;4.40;;;12.60;99.90;;;;;;4939768;29;20214;-79
2023/09/23 04:26:28;;;;;;;5.50;4.47;;;12.50;99.90;;;;;;4939946;29;20233;-80
2023/09/23 04:28:56;;;;;;;7.77;4.73;;;12.50;99.90;;;;;;4935059;29;20262;-80
2023/09/23 04:31:24;;;;;;;5.70;4.27;;;12.60;99.90;;;;;;4941732;29;20207;-80
2023/09/23 04:33:52;;;;;;;4.43;4.03;;;12.50;99.90;;;;;;4941499;29;20211;-79
2023/09/23 04:36:21;;;;;;;6.23;4.60;;;12.40;99.90;;;;;;4937778;29;20204;-79
2023/09/23 04:38:47;;;;;;;6.07;4.77;;;12.50;99.90;;;;;;4936172;29;20238;-80
2023/09/23 04:41:14;;;;;;;4.27;3.87;;;12.50;99.90;;;;;;4930810;29;20571;-81
2023/09/23 04:43:42;;;;;;;5.67;4.30;;;12.40;99.90;;;;;;4943682;29;20204;-80
2023/09/23 04:46:14;;;;;;;6.07;4.50;;;12.40;99.90;;;;;;4934548;29;20226;-81
2023/09/23 04:48:41;;;;;;;4.20;3.80;;;12.40;99.90;;;;;;4939073;29;20706;-82
2023/09/23 04:51:09;;;;;;;5.43;4.20;;;12.50;99.90;;;;;;4924254;29;20216;-80
2023/09/23 04:53:36;;;;;;;4.77;4.23;;;12.50;99.90;;;;;;4937094;29;20209;-79
2023/09/23 04:56:08;;;;;;;4.67;3.93;;;12.40;99.90;;;;;;4937133;29;20226;-80
2023/09/23 04:58:35;;;;;;;5.43;4.70;;;12.30;99.90;;;;;;4937172;29;20229;-81
2023/09/23 05:01:02;;;;;;;6.47;4.90;;;12.20;99.90;;;;;;4933214;29;20211;-80
2023/09/23 05:03:30;;;;;;;5.07;4.37;;;12.10;99.90;;;;;;4931439;29;20794;-80
2023/09/23 05:05:57;;;;;;;7.00;4.60;;;12.10;99.90;;;;;;4927480;29;20699;-79
2023/09/23 05:08:25;;;;;;;5.50;4.93;;;12.10;99.90;;;;;;4931796;29;20626;-79
2023/09/23 05:10:52;;;;;;;9.63;7.10;;;12.10;99.90;;;;;;4932876;29;20209;-80
2023/09/23 05:13:19;;;;;;;10.77;7.93;;;12.20;99.90;;;;;;4931444;29;20213;-80
2023/09/23 05:15:46;;;;;;;10.27;8.00;;;12.10;99.90;;;;;;4933802;29;20222;-79
2023/09/23 05:18:13;;;;;;;10.23;8.30;;;12.10;99.90;;;;;;4931237;29;20227;-78
2023/09/23 05:20:41;;;;;;;11.63;8.03;;;12.10;99.90;;;;;;4929331;29;20203;-79
2023/09/23 05:23:08;;;;;;;11.97;9.10;;;12.20;99.90;;;;;;4934771;29;20602;-80
2023/09/23 05:25:41;;;;;;;13.10;9.50;;;12.20;99.90;;;;;;4931738;29;20219;-79
2023/09/23 05:28:10;;;;;;;14.20;9.93;;;12.30;99.90;;;;;;4939538;29;20227;-79
2023/09/23 05:30:37;;;;;;;13.63;9.83;;;12.30;99.90;;;;;;4945714;29;20203;-79
2023/09/23 05:33:04;;;;;;;12.07;8.47;;;12.30;99.90;;;;;;4935174;29;20218;-80
2023/09/23 05:35:30;;;;;;;11.77;8.63;;;12.30;99.90;;;;;;4938439;29;20202;-78
2023/09/23 05:37:57;;;;;;;10.70;8.20;;;12.30;99.90;;;;;;4894653;29;1091264;-78
2023/09/23 05:40:27;;;;;;;13.33;9.33;;;12.30;99.90;;;;;;4935167;29;20200;-81
2023/09/23 05:42:55;;;;;;;13.70;9.40;;;12.40;99.90;;;;;;4936160;29;20661;-82
2023/09/23 05:45:24;;;;;;;13.07;9.33;;;12.40;99.90;;;;;;4936303;29;20243;-80
2023/09/23 05:47:51;;;;;;;13.73;9.33;;;12.40;99.90;;;;;;4930635;29;20251;-81
2023/09/23 05:50:20;;;;;;;18.67;9.77;;;12.50;99.90;;;;;;4926157;29;20212;-81
2023/09/23 05:52:47;;;;;;;13.87;9.60;;;12.50;99.90;;;;;;4941156;29;20233;-80
2023/09/23 05:55:14;;;;;;;13.73;9.27;;;12.50;99.90;;;;;;4941073;29;20203;-81
2023/09/23 05:57:41;;;;;;;13.17;9.37;;;12.50;99.90;;;;;;4938854;29;20230;-82
2023/09/23 06:00:11;;;;;;;14.03;9.67;;;12.50;99.90;;;;;;4939017;29;20234;-83
2023/09/23 06:02:38;;;;;;;14.37;10.37;;;12.50;99.90;;;;;;4939924;29;20221;-82
2023/09/23 06:05:06;;;;;;;14.83;10.13;;;12.50;99.90;;;;;;4931295;29;20206;-81
2023/09/23 06:07:32;;;;;;;13.57;9.50;;;12.50;99.90;;;;;;4939068;29;20229;-81
2023/09/23 06:10:00;;;;;;;13.87;9.03;;;12.50;99.90;;;;;;4932225;29;20294;-81
2023/09/23 06:12:29;;;;;;;14.07;8.80;;;12.50;99.90;;;;;;4939260;29;20207;-81
2023/09/23 06:14:56;;;;;;;10.77;8.70;;;12.50;99.90;;;;;;4938677;29;20211;-81
2023/09/23 06:17:25;;;;;;;12.13;8.87;;;12.60;99.90;;;;;;4938022;29;20223;-80
2023/09/23 06:19:51;;;;;;;11.63;8.70;;;12.50;99.90;;;;;;4938939;29;20214;-80
2023/09/23 06:22:18;;;;;;;12.73;9.10;;;12.50;99.90;;;;;;4931052;29;20211;-82
2023/09/23 06:24:45;;;;;;;11.70;9.50;;;12.50;99.90;;;;;;4935944;29;20205;-82
2023/09/23 06:27:12;;;;;;;12.70;9.60;;;12.60;99.90;;;;;;4932990;29;20239;-82
2023/09/23 06:29:39;;;;;;;12.93;9.40;;;12.60;99.90;;;;;;4936530;29;20218;-82
2023/09/23 06:32:06;;;;;;;13.30;9.57;;;12.60;99.90;;;;;;4938645;29;20283;-82
2023/09/23 06:34:34;;;;;;;16.70;10.30;;;12.60;99.90;;;;;;4937948;29;20237;-82
2023/09/23 06:37:00;;;;;;;12.73;9.50;;;12.70;99.90;;;;;;4937584;29;20290;-82
2023/09/23 06:39:27;;;;;;;13.10;9.60;;;12.80;99.90;;;;;;4938202;29;20214;-81
2023/09/23 06:41:55;;;;;;;18.73;9.13;;;12.80;99.90;;;;;;4938191;29;20207;-81
2023/09/23 06:44:22;;;;;;;12.23;9.50;;;12.80;99.90;;;;;;4938821;29;20664;-81
2023/09/23 06:46:51;;;;;;;11.30;8.40;;;12.90;99.90;;;;;;4936175;29;20610;-80
2023/09/23 06:49:18;;;;;;;11.70;8.27;;;12.90;99.90;;;;;;4937749;29;20217;-81
2023/09/23 06:51:46;;;;;;;11.83;8.60;;;12.90;99.90;;;;;;4938030;29;20252;-82
2023/09/23 06:54:13;;;;;;;12.20;8.10;;;13.00;99.90;;;;;;4937944;29;20207;-81
2023/09/23 06:56:39;;;;;;;12.23;8.90;;;13.00;99.90;;;;;;4937143;29;20203;-82
2023/09/23 06:59:06;;;;;;;8.93;7.17;;;13.00;99.90;;;;;;4937054;29;20223;-82
2023/09/23 07:01:34;;;;;;;10.47;7.43;;;13.20;99.90;;;;;;4936520;29;20603;-80
2023/09/23 07:04:01;;;;;;;9.60;6.47;;;13.20;99.90;;;;;;4931480;29;20199;-80
2023/09/23 07:06:28;;;;;;;13.23;7.27;;;13.20;99.90;;;;;;4928679;29;20227;-82
2023/09/23 07:08:57;;;;;;;9.87;6.43;;;13.30;99.90;;;;;;4927107;29;20237;-81
2023/09/23 07:11:24;;;;;;;7.43;6.03;;;13.30;99.90;;;;;;4937568;29;20210;-81
2023/09/23 07:13:51;;;;;;;7.67;6.13;;;13.20;99.90;;;;;;4937815;29;20262;-81
2023/09/23 07:16:18;;;;;;;8.37;5.67;;;13.40;99.90;;;;;;4937408;29;20209;-83
2023/09/23 07:18:45;;;;;;;6.80;5.13;;;13.40;99.90;;;;;;4936036;29;20227;-82
2023/09/23 07:21:12;;;;;;;8.13;6.03;;;13.50;99.90;;;;;;4937546;29;20211;-82
2023/09/23 07:23:39;;;;;;;6.57;5.00;;;13.50;99.90;;;;;;4934848;29;20207;-82
2023/09/23 07:26:07;;;;;;;7.40;5.10;;;13.60;99.90;;;;;;4933377;29;20222;-81
2023/09/23 07:28:34;;;;;;;7.57;5.47;;;13.70;99.90;;;;;;4937500;29;20227;-82
2023/09/23 07:31:01;;;;;;;7.40;5.23;;;13.80;99.90;;;;;;4936655;29;20254;-81
2023/09/23 07:33:28;;;;;;;7.10;5.03;;;13.80;99.90;;;;;;4934612;29;20211;-82
2023/09/23 07:35:55;;;;;;;6.50;5.23;;;13.80;99.90;;;;;;4937158;29;20718;-81
2023/09/23 07:38:22;;;;;;;8.33;4.97;;;13.80;99.90;;;;;;4933643;29;20231;-80
2023/09/23 07:40:49;;;;;;;9.03;5.67;;;14.20;99.90;;;;;;4941066;29;20207;-80
2023/09/23 07:43:17;;;;;;;8.93;6.30;;;14.00;99.90;;;;;;4936622;29;20215;-80
2023/09/23 07:45:44;;;;;;;7.70;5.90;;;14.10;99.90;;;;;;4937112;29;20738;-80
2023/09/23 07:48:11;;;;;;;9.43;6.20;;;14.20;99.90;;;;;;4936629;29;20223;-81
2023/09/23 07:50:38;;;;;;;8.77;5.77;;;14.10;99.90;;;;;;4931160;29;20209;-82
2023/09/23 07:53:05;;;;;;;6.33;5.30;;;14.10;99.90;;;;;;4937139;29;20645;-79
2023/09/23 07:55:31;;;;;;;4.87;4.27;;;14.10;99.90;;;;;;4937351;29;20293;-82
2023/09/23 07:57:58;;;;;;;6.53;3.90;;;14.00;99.90;;;;;;4946393;29;20241;-81
2023/09/23 08:00:26;;;;;;;6.07;3.93;;;13.90;99.90;;;;;;4942114;29;20215;-80
2023/09/23 08:02:53;;;;;;;5.40;3.80;;;14.00;99.90;;;;;;4934549;29;20211;-81
2023/09/23 08:05:23;;;;;;;7.73;3.83;;;14.20;99.90;;;;;;4945138;29;20285;-82
2023/09/23 08:07:50;;;;;;;5.80;3.80;;;14.20;99.90;;;;;;4948625;29;20240;-82
2023/09/23 08:10:17;;;;;;;5.07;3.70;;;14.30;99.90;;;;;;4936388;29;20238;-81
2023/09/23 08:12:44;;;;;;;7.20;4.20;;;14.40;99.90;;;;;;4937103;29;20238;-81
2023/09/23 08:15:12;;;;;;;4.57;4.00;;;14.50;99.90;;;;;;4936579;29;20210;-81
2023/09/23 08:17:40;;;;;;;7.27;4.67;;;14.60;99.90;;;;;;4930062;29;20594;-81
2023/09/23 08:20:17;;;;;;;10.90;5.60;;;14.60;99.90;;;;;;4930838;29;20218;-81
2023/09/23 08:22:44;;;;;;;7.03;4.47;;;14.60;99.90;;;;;;4937091;29;20249;-80
2023/09/23 08:25:12;;;;;;;5.40;3.93;;;14.60;99.90;;;;;;4940961;29;20213;-81
2023/09/23 08:27:38;;;;;;;5.43;3.27;;;14.60;99.90;;;;;;4934955;29;20237;-81
2023/09/23 08:30:07;;;;;;;4.07;3.27;;;14.60;99.90;;;;;;4932919;29;20208;-82
2023/09/23 08:32:33;;;;;;;7.67;4.30;;;14.60;99.90;;;;;;4939563;29;20210;-81
2023/09/23 08:35:02;;;;;;;9.47;3.60;;;14.60;99.90;;;;;;4936969;29;20218;-81
2023/09/23 08:37:28;;;;;;;4.73;3.10;;;15.10;99.90;;;;;;4935578;29;20322;-80
2023/09/23 08:39:55;;;;;;;4.13;3.47;;;15.20;99.90;;;;;;4931452;29;20230;-81
2023/09/23 08:42:24;;;;;;;4.90;2.90;;;15.10;99.90;;;;;;4937153;29;20213;-82
2023/09/23 08:44:52;;;;;;;4.43;3.47;;;15.10;99.90;;;;;;4939751;29;20207;-80
2023/09/23 08:47:20;;;;;;;5.33;3.63;;;14.90;99.90;;;;;;4930275;29;20608;-81
2023/09/23 08:49:48;;;;;;;6.10;3.10;;;14.90;99.90;;;;;;4934165;29;20199;-81
2023/09/23 08:52:17;;;;;;;5.13;3.17;;;15.10;99.90;;;;;;4942988;29;20222;-79
2023/09/23 08:54:45;;;;;;;6.37;3.60;;;15.00;99.90;;;;;;4938537;29;20203;-80
2023/09/23 08:57:12;;;;;;;5.63;3.70;;;15.20;99.90;;;;;;4933886;29;20215;-81
2023/09/23 08:59:40;;;;;;;5.43;3.10;;;15.20;99.90;;;;;;4938947;29;20205;-82
2023/09/23 09:02:08;;;;;;;7.77;3.50;;;15.20;99.90;;;;;;4940141;29;20210;-82
2023/09/23 09:04:35;;;;;;;7.50;3.78;;;15.40;99.90;;;;;;4940241;29;20202;-82
2023/09/23 09:07:02;;;;;;;4.45;3.58;;;15.70;99.90;;;;;;4939571;29;20219;-81
2023/09/23 09:09:30;;;;;;;8.32;3.53;;;16.00;99.90;;;;;;4936779;29;20213;-81
2023/09/23 09:11:58;;;;;;;4.80;3.38;;;15.90;99.90;;;;;;4941452;29;20210;-81
2023/09/23 09:14:26;;;;;;;4.72;3.10;;;15.50;99.90;;;;;;4949376;29;20198;-81
2023/09/23 09:16:54;;;;;;;8.33;3.70;;;15.50;99.90;;;;;;4937633;29;20200;-81
2023/09/23 09:19:20;;;;;;;5.20;3.00;;;15.60;99.90;;;;;;4939178;29;20204;-80
2023/09/23 09:21:49;;;;;;;4.32;2.88;;;15.60;99.90;;;;;;4939337;29;20210;-82
2023/09/23 09:24:16;;;;;;;3.53;3.00;;;15.60;99.90;;;;;;4936817;29;20203;-80
2023/09/23 09:26:45;;;;;;;4.28;3.28;;;15.80;99.90;;;;;;4936242;29;20231;-79
2023/09/23 09:29:13;;;;;;;4.25;3.80;;;15.80;99.90;;;;;;4938752;29;20214;-80
2023/09/23 09:31:43;;;;;;;6.13;3.83;;;15.70;99.90;;;;;;4939358;29;20207;-81
2023/09/23 09:34:11;;;;;;;5.53;3.88;;;15.70;99.90;;;;;;4926468;29;20207;-80
2023/09/23 09:36:39;;;;;;;7.28;4.45;;;15.80;99.90;;;;;;4938658;29;20235;-82
2023/09/23 09:39:08;;;;;;;7.07;4.03;;;15.70;99.90;;;;;;4938067;29;20313;-82
2023/09/23 09:41:44;;;;;;;5.63;3.95;;;15.60;99.90;;;;;;4937817;29;20200;-82
2023/09/23 09:44:14;;;;;;;5.72;3.72;;;15.60;99.90;;;;;;4930983;29;20207;-81
2023/09/23 09:46:42;;;;;;;9.55;4.68;;;15.70;99.90;;;;;;4938002;29;20259;-82
2023/09/23 09:49:10;;;;;;;6.00;3.92;;;15.80;99.90;;;;;;4938214;29;20667;-81
2023/09/23 09:51:37;;;;;;;6.10;3.95;;;15.90;99.90;;;;;;4936028;29;20298;-82
2023/09/23 09:54:05;;;;;;;7.05;4.05;;;16.30;99.90;;;;;;4933977;29;20216;-81
2023/09/23 09:56:33;;;;;;;5.68;3.47;;;16.30;99.90;;;;;;4938610;29;20211;-81
2023/09/23 09:59:03;;;;;;;4.80;3.42;;;16.30;99.90;;;;;;4937907;29;20282;-82
2023/09/23 10:01:32;;;;;;;6.70;4.90;;;16.40;99.90;;;;;;4939398;29;20576;-80
2023/09/23 10:03:59;;;;;;;4.85;3.30;;;16.30;99.90;;;;;;4939077;29;20211;-82
2023/09/23 10:06:26;;;;;;;4.90;3.15;;;16.40;99.90;;;;;;4933759;29;20359;-82
2023/09/23 10:08:54;;;;;;;6.13;3.20;;;16.20;99.90;;;;;;4937847;29;20620;-81
2023/09/23 10:11:31;;;;;;;5.22;3.30;;;16.30;99.90;;;;;;4934725;29;20613;-80
2023/09/23 10:13:57;;;;;;;3.60;3.22;;;16.60;99.90;;;;;;4944501;29;20644;-81
2023/09/23 10:16:29;;;;;;;4.55;3.15;;;16.60;99.90;;;;;;4940792;29;20199;-81
2023/09/23 10:18:58;;;;;;;4.88;3.70;;;16.40;99.90;;;;;;4940614;29;20234;-82
2023/09/23 10:21:27;;;;;;;4.32;3.53;;;16.40;99.90;;;;;;4941270;29;20211;-80
2023/09/23 10:23:56;;;;;;;5.60;3.00;;;16.50;99.90;;;;;;4938118;29;20206;-80
2023/09/23 10:26:23;;;;;;;7.20;3.55;;;16.80;99.90;;;;;;4936524;29;20641;-81
2023/09/23 10:28:58;;;;;;;5.60;3.13;;;16.90;99.90;;;;;;4935142;29;20227;-81
2023/09/23 10:31:26;;;;;;;3.85;3.30;;;17.00;99.90;;;;;;4924889;29;20293;-81
2023/09/23 10:33:54;;;;;;;6.13;3.00;;;17.50;99.90;;;;;;4938144;29;20203;-81
2023/09/23 10:36:23;;;;;;;4.93;3.25;;;18.10;99.90;;;;;;4940152;29;20199;-79
2023/09/23 10:38:51;;;;;;;6.03;3.13;;;17.90;99.90;;;;;;4937817;29;20603;-81
2023/09/23 10:41:18;;;;;;;5.43;3.00;;;17.80;99.90;;;;;;4938486;29;20207;-80
2023/09/23 10:43:52;;;;;;;4.20;2.80;;;18.40;99.90;;;;;;4935808;29;20199;-81
2023/09/23 10:46:18;;;;;;;3.13;2.88;;;18.70;99.90;;;;;;4929142;29;20208;-81
2023/09/23 10:48:45;;;;;;;5.43;3.00;;;18.30;99.90;;;;;;4931858;29;20227;-80
2023/09/23 10:51:12;;;;;;;4.97;2.70;;;18.20;99.90;;;;;;4935011;29;20210;-80
2023/09/23 10:53:42;;;;;;;4.35;2.90;;;18.70;99.90;;;;;;4934012;29;20222;-80
2023/09/23 10:56:10;;;;;;;6.50;3.08;;;18.90;99.90;;;;;;4936668;29;20206;-80
2023/09/23 10:58:38;;;;;;;5.30;3.10;;;18.80;99.90;;;;;;4938308;29;20234;-81
2023/09/23 11:01:05;;;;;;;3.10;2.90;;;18.80;99.90;;;;;;4936001;29;20210;-80
2023/09/23 11:03:39;;;;;;;5.72;2.70;;;18.90;99.90;;;;;;4942722;29;20211;-79
2023/09/23 11:06:08;;;;;;;3.55;2.60;;;19.00;99.90;;;;;;4936048;29;20214;-80
2023/09/23 11:08:36;;;;;;;2.78;2.50;;;19.50;99.90;;;;;;4941526;29;20313;-79
2023/09/23 11:11:04;;;;;;;4.38;2.60;;;19.40;99.90;;;;;;4932828;29;20210;-79
2023/09/23 11:13:35;;;;;;;6.30;2.80;;;19.30;99.90;;;;;;4936598;29;20213;-79
2023/09/23 11:16:09;;;;;;;2.85;2.55;;;19.50;99.90;;;;;;4933771;29;20214;-79
2023/09/23 11:18:37;;;;;;;3.53;2.60;;;19.60;99.90;;;;;;4930654;29;20215;-78
2023/09/23 11:21:04;;;;;;;5.15;2.88;;;19.70;99.90;;;;;;4935960;29;20202;-79
2023/09/23 11:23:32;;;;;;;5.10;2.28;;;19.50;99.90;;;;;;4939392;29;20293;-79
2023/09/23 11:25:59;;;;;;;3.78;2.50;;;19.40;99.90;;;;;;4932614;29;20217;-80
2023/09/23 11:28:28;;;;;;;2.38;1.90;;;19.60;99.90;;;;;;4927443;29;20230;-79
2023/09/23 11:30:57;;;;;;;3.42;2.08;;;19.90;99.90;;;;;;4936600;29;20261;-79
2023/09/23 11:33:26;;;;;;;2.50;2.30;;;19.70;99.90;;;;;;4931533;29;20210;-78
2023/09/23 11:35:54;;;;;;;5.90;2.20;;;19.60;99.90;;;;;;4932284;29;20207;-80
2023/09/23 11:38:21;;;;;;;4.85;2.60;;;19.60;99.90;;;;;;4932902;29;20313;-80
2023/09/23 11:40:48;;;;;;;2.60;2.10;;;19.60;99.90;;;;;;4930966;29;20214;-80
2023/09/23 11:43:15;;;;;;;4.80;2.35;;;20.00;99.90;;;;;;4925914;29;20210;-80
2023/09/23 11:45:43;;;;;;;2.03;1.90;;;19.90;99.90;;;;;;4931553;29;20207;-80
2023/09/23 11:48:10;;;;;;;4.15;2.30;;;19.90;99.90;;;;;;4933863;29;20226;-81
2023/09/23 11:50:37;;;;;;;3.67;2.65;;;20.10;99.90;;;;;;4931584;29;20203;-79
2023/09/23 11:53:05;;;;;;;3.55;2.40;;;19.40;99.90;;;;;;4937877;29;20590;-79
2023/09/23 11:55:32;;;;;;;2.95;2.22;;;19.00;99.90;;;;;;4933193;29;20203;-79
2023/09/23 11:57:59;;;;;;;2.75;1.80;;;18.90;99.90;;;;;;4933640;29;20227;-79
2023/09/23 12:00:26;;;;;;;2.60;2.15;;;19.40;99.90;;;;;;4931668;29;20207;-78
2023/09/23 12:02:54;;;;;;;4.10;2.30;;;20.00;99.90;;;;;;4930875;29;20211;-78
2023/09/23 12:05:26;;;;;;;6.72;2.25;;;20.20;99.90;;;;;;4934615;29;20583;-78
2023/09/23 12:07:53;;;;;;;2.15;1.95;;;19.60;99.90;;;;;;4930943;29;20301;-78
2023/09/23 12:10:20;;;;;;;3.30;1.95;;;19.30;99.90;;;;;;4931591;29;20207;-78
2023/09/23 12:12:47;;;;;;;3.72;2.08;;;19.40;99.90;;;;;;4933484;29;20239;-78
2023/09/23 12:15:14;;;;;;;3.53;2.22;;;19.10;99.90;;;;;;4939129;29;20205;-77
2023/09/23 12:17:40;;;;;;;3.95;2.22;;;18.60;99.90;;;;;;4936175;29;20314;-79
2023/09/23 12:20:11;;;;;;;3.42;2.03;;;18.50;99.90;;;;;;4937301;29;20667;-79
2023/09/23 12:22:38;;;;;;;3.65;2.25;;;18.50;99.90;;;;;;4938435;29;20211;-77
2023/09/23 12:25:06;;;;;;;4.07;2.33;;;18.40;99.90;;;;;;4938467;29;20289;-78
2023/09/23 12:27:33;;;;;;;3.55;2.35;;;18.40;99.90;;;;;;4938715;29;20241;-79
2023/09/23 12:30:00;;;;;;;3.45;2.00;;;18.80;99.90;;;;;;4930641;29;20294;-79
2023/09/23 12:32:27;;;;;;;3.63;2.15;;;19.00;99.90;;;;;;4935211;29;20213;-79
2023/09/23 12:34:54;;;;;;;4.93;2.00;;;19.70;99.90;;;;;;4936060;29;20214;-79
2023/09/23 12:37:26;;;;;;;3.63;2.08;;;20.00;99.90;;;;;;4933931;29;20231;-78
2023/09/23 12:39:53;;;;;;;2.95;2.30;;;20.50;99.90;;;;;;4933556;29;20211;-79
2023/09/23 12:42:20;;;;;;;2.80;2.20;;;19.80;99.90;;;;;;4937321;29;20246;-80
2023/09/23 12:44:47;;;;;;;2.45;2.10;;;20.30;99.90;;;;;;4936729;29;20298;-78
2023/09/23 12:47:13;;;;;;;6.68;1.88;;;20.20;99.90;;;;;;4934737;29;20269;-78
2023/09/23 12:49:40;;;;;;;4.70;1.90;;;19.50;99.90;;;;;;4933954;29;20694;-78